sensor_id;sensor_type;location;lat;lon;timestamp;pressure;altitude;pressure_sealevel;temperature;humidity
74790;BME280;63318;52.406;13.416;2022-11-24T00:01:05;100403.41;;;0.79;84.61
74790;BME280;63318;52.406;13.416;2022-11-24T00:03:34;100403.58;;;0.86;84.80
74790;BME280;63318;52.406;13.416;2022-11-24T00:06:08;100403.48;;;0.93;84.80
74790;BME280;63318;52.406;13.416;2022-11-24T00:08:37;100408.08;;;1.00;85.02
74790;BME280;63318;52.406;13.416;2022-11-24T00:11:08;100406.10;;;1.05;84.91
74790;BME280;63318;52.406;13.416;2022-11-24T00:13:37;100406.30;;;1.11;85.10
74790;BME280;63318;52.406;13.416;2022-11-24T00:16:08;100405.67;;;1.20;84.92
74790;BME280;63318;52.406;13.416;2022-11-24T00:18:37;100405.58;;;1.31;84.81
74790;BME280;63318;52.406;13.416;2022-11-24T00:21:07;100407.33;;;1.38;85.13
74790;BME280;63318;52.406;13.416;2022-11-24T00:23:36;100407.95;;;1.44;84.80
74790;BME280;63318;52.406;13.416;2022-11-24T00:26:06;100413.44;;;1.52;84.96
74790;BME280;63318;52.406;13.416;2022-11-24T00:28:36;100410.41;;;1.57;85.18
74790;BME280;63318;52.406;13.416;2022-11-24T00:31:12;100411.92;;;1.61;84.98
74790;BME280;63318;52.406;13.416;2022-11-24T00:33:41;100407.17;;;1.65;84.96
74790;BME280;63318;52.406;13.416;2022-11-24T00:36:09;100406.96;;;1.67;84.98
74790;BME280;63318;52.406;13.416;2022-11-24T00:38:38;100414.08;;;1.66;84.86
74790;BME280;63318;52.406;13.416;2022-11-24T00:41:06;100412.23;;;1.66;85.01
74790;BME280;63318;52.406;13.416;2022-11-24T00:43:34;100413.89;;;1.63;84.82
74790;BME280;63318;52.406;13.416;2022-11-24T00:46:02;100409.36;;;1.60;84.84
74790;BME280;63318;52.406;13.416;2022-11-24T00:48:31;100413.12;;;1.56;84.90
74790;BME280;63318;52.406;13.416;2022-11-24T00:51:01;100408.91;;;1.51;85.21
74790;BME280;63318;52.406;13.416;2022-11-24T00:53:30;100404.27;;;1.45;85.01
74790;BME280;63318;52.406;13.416;2022-11-24T00:55:58;100404.90;;;1.41;85.01
74790;BME280;63318;52.406;13.416;2022-11-24T00:58:26;100408.62;;;1.36;85.03
74790;BME280;63318;52.406;13.416;2022-11-24T01:01:00;100403.08;;;1.32;84.95
74790;BME280;63318;52.406;13.416;2022-11-24T01:03:28;100402.23;;;1.36;84.90
74790;BME280;63318;52.406;13.416;2022-11-24T01:06:00;100406.19;;;1.38;84.60
74790;BME280;63318;52.406;13.416;2022-11-24T01:08:28;100406.48;;;1.37;84.86
74790;BME280;63318;52.406;13.416;2022-11-24T01:11:06;100410.20;;;1.37;84.76
74790;BME280;63318;52.406;13.416;2022-11-24T01:13:35;100418.45;;;1.42;85.14
74790;BME280;63318;52.406;13.416;2022-11-24T01:16:03;100421.73;;;1.48;84.76
74790;BME280;63318;52.406;13.416;2022-11-24T01:18:32;100424.72;;;1.53;85.06
74790;BME280;63318;52.406;13.416;2022-11-24T01:21:04;100433.39;;;1.58;85.54
74790;BME280;63318;52.406;13.416;2022-11-24T01:23:32;100434.70;;;1.63;85.37
74790;BME280;63318;52.406;13.416;2022-11-24T01:26:02;100431.72;;;1.67;85.59
74790;BME280;63318;52.406;13.416;2022-11-24T01:28:30;100429.06;;;1.67;85.82
74790;BME280;63318;52.406;13.416;2022-11-24T01:30:59;100427.77;;;1.70;85.67
74790;BME280;63318;52.406;13.416;2022-11-24T01:33:28;100427.80;;;1.71;85.60
74790;BME280;63318;52.406;13.416;2022-11-24T01:35:57;100421.48;;;1.71;85.86
74790;BME280;63318;52.406;13.416;2022-11-24T01:38:26;100413.55;;;1.69;85.57
74790;BME280;63318;52.406;13.416;2022-11-24T01:41:03;100414.09;;;1.64;85.42
74790;BME280;63318;52.406;13.416;2022-11-24T01:43:31;100413.73;;;1.56;85.69
74790;BME280;63318;52.406;13.416;2022-11-24T01:46:03;100409.42;;;1.49;85.33
74790;BME280;63318;52.406;13.416;2022-11-24T01:48:41;100411.64;;;1.41;85.24
74790;BME280;63318;52.406;13.416;2022-11-24T01:51:12;100410.56;;;1.33;85.67
74790;BME280;63318;52.406;13.416;2022-11-24T01:53:43;100416.97;;;1.27;85.59
74790;BME280;63318;52.406;13.416;2022-11-24T01:56:13;100427.23;;;1.23;85.88
74790;BME280;63318;52.406;13.416;2022-11-24T01:58:43;100442.46;;;1.27;85.80
74790;BME280;63318;52.406;13.416;2022-11-24T02:01:13;100443.00;;;1.28;85.69
74790;BME280;63318;52.406;13.416;2022-11-24T02:03:44;100436.58;;;1.28;85.55
74790;BME280;63318;52.406;13.416;2022-11-24T02:06:17;100445.91;;;1.29;85.57
74790;BME280;63318;52.406;13.416;2022-11-24T02:08:52;100443.96;;;1.31;85.99
74790;BME280;63318;52.406;13.416;2022-11-24T02:11:25;100443.06;;;1.33;86.15
74790;BME280;63318;52.406;13.416;2022-11-24T02:13:55;100446.11;;;1.36;85.86
74790;BME280;63318;52.406;13.416;2022-11-24T02:16:24;100449.48;;;1.40;86.07
74790;BME280;63318;52.406;13.416;2022-11-24T02:18:52;100449.20;;;1.44;85.97
74790;BME280;63318;52.406;13.416;2022-11-24T02:21:21;100453.54;;;1.50;86.08
74790;BME280;63318;52.406;13.416;2022-11-24T02:23:56;100456.69;;;1.56;85.95
74790;BME280;63318;52.406;13.416;2022-11-24T02:26:39;100455.98;;;1.61;85.85
74790;BME280;63318;52.406;13.416;2022-11-24T02:29:09;100454.16;;;1.66;86.07
74790;BME280;63318;52.406;13.416;2022-11-24T02:31:38;100452.88;;;1.69;85.92
74790;BME280;63318;52.406;13.416;2022-11-24T02:34:08;100456.98;;;1.76;86.19
74790;BME280;63318;52.406;13.416;2022-11-24T02:36:36;100459.37;;;1.77;85.94
74790;BME280;63318;52.406;13.416;2022-11-24T02:39:07;100459.69;;;1.80;86.10
74790;BME280;63318;52.406;13.416;2022-11-24T02:41:36;100459.33;;;1.83;85.93
74790;BME280;63318;52.406;13.416;2022-11-24T02:44:05;100461.64;;;1.79;85.83
74790;BME280;63318;52.406;13.416;2022-11-24T02:46:34;100464.59;;;1.74;85.70
74790;BME280;63318;52.406;13.416;2022-11-24T02:49:02;100462.59;;;1.67;85.56
74790;BME280;63318;52.406;13.416;2022-11-24T02:51:30;100464.05;;;1.60;85.56
74790;BME280;63318;52.406;13.416;2022-11-24T02:53:58;100466.41;;;1.53;85.50
74790;BME280;63318;52.406;13.416;2022-11-24T02:56:27;100469.06;;;1.48;85.85
74790;BME280;63318;52.406;13.416;2022-11-24T02:58:55;100464.34;;;1.41;85.70
74790;BME280;63318;52.406;13.416;2022-11-24T03:01:24;100460.27;;;1.34;85.76
74790;BME280;63318;52.406;13.416;2022-11-24T03:03:52;100459.98;;;1.28;85.88
74790;BME280;63318;52.406;13.416;2022-11-24T03:06:20;100452.30;;;1.25;86.08
74790;BME280;63318;52.406;13.416;2022-11-24T03:08:48;100446.76;;;1.29;86.05
74790;BME280;63318;52.406;13.416;2022-11-24T03:11:16;100441.45;;;1.28;85.92
74790;BME280;63318;52.406;13.416;2022-11-24T03:13:44;100451.59;;;1.23;86.00
74790;BME280;63318;52.406;13.416;2022-11-24T03:16:13;100462.34;;;1.20;85.76
74790;BME280;63318;52.406;13.416;2022-11-24T03:18:41;100458.98;;;1.19;86.06
74790;BME280;63318;52.406;13.416;2022-11-24T03:21:09;100458.41;;;1.22;86.19
74790;BME280;63318;52.406;13.416;2022-11-24T03:23:38;100466.80;;;1.27;85.99
74790;BME280;63318;52.406;13.416;2022-11-24T03:26:10;100471.42;;;1.29;86.15
74790;BME280;63318;52.406;13.416;2022-11-24T03:28:39;100471.55;;;1.34;86.61
74790;BME280;63318;52.406;13.416;2022-11-24T03:31:08;100473.96;;;1.38;86.21
74790;BME280;63318;52.406;13.416;2022-11-24T03:33:37;100475.98;;;1.43;86.03
74790;BME280;63318;52.406;13.416;2022-11-24T03:36:07;100476.55;;;1.46;86.22
74790;BME280;63318;52.406;13.416;2022-11-24T03:38:35;100481.55;;;1.48;86.47
74790;BME280;63318;52.406;13.416;2022-11-24T03:41:04;100482.94;;;1.49;86.33
74790;BME280;63318;52.406;13.416;2022-11-24T03:43:32;100485.27;;;1.47;86.53
74790;BME280;63318;52.406;13.416;2022-11-24T03:46:00;100484.67;;;1.47;86.57
74790;BME280;63318;52.406;13.416;2022-11-24T03:48:28;100484.90;;;1.45;86.55
74790;BME280;63318;52.406;13.416;2022-11-24T03:50:58;100485.92;;;1.43;86.47
74790;BME280;63318;52.406;13.416;2022-11-24T03:53:28;100483.79;;;1.42;86.53
74790;BME280;63318;52.406;13.416;2022-11-24T03:55:57;100487.05;;;1.38;86.23
74790;BME280;63318;52.406;13.416;2022-11-24T03:58:25;100489.17;;;1.35;86.22
74790;BME280;63318;52.406;13.416;2022-11-24T04:00:54;100488.50;;;1.30;86.25
74790;BME280;63318;52.406;13.416;2022-11-24T04:03:23;100492.69;;;1.25;86.24
74790;BME280;63318;52.406;13.416;2022-11-24T04:05:52;100494.54;;;1.20;86.22
74790;BME280;63318;52.406;13.416;2022-11-24T04:08:20;100505.80;;;1.14;86.16
74790;BME280;63318;52.406;13.416;2022-11-24T04:10:52;100510.84;;;1.09;86.33
74790;BME280;63318;52.406;13.416;2022-11-24T04:13:22;100513.05;;;1.06;86.19
74790;BME280;63318;52.406;13.416;2022-11-24T04:15:51;100509.93;;;1.13;86.17
74790;BME280;63318;52.406;13.416;2022-11-24T04:18:20;100508.92;;;1.16;86.16
74790;BME280;63318;52.406;13.416;2022-11-24T04:20:50;100505.30;;;1.15;86.28
74790;BME280;63318;52.406;13.416;2022-11-24T04:23:19;100498.86;;;1.14;86.19
74790;BME280;63318;52.406;13.416;2022-11-24T04:25:48;100503.35;;;1.16;86.20
74790;BME280;63318;52.406;13.416;2022-11-24T04:28:16;100500.92;;;1.22;85.92
74790;BME280;63318;52.406;13.416;2022-11-24T04:30:44;100499.05;;;1.27;86.43
74790;BME280;63318;52.406;13.416;2022-11-24T04:33:13;100496.45;;;1.31;86.21
74790;BME280;63318;52.406;13.416;2022-11-24T04:35:41;100495.88;;;1.35;86.39
74790;BME280;63318;52.406;13.416;2022-11-24T04:38:10;100498.08;;;1.38;86.73
74790;BME280;63318;52.406;13.416;2022-11-24T04:40:38;100508.38;;;1.34;86.65
74790;BME280;63318;52.406;13.416;2022-11-24T04:43:07;100515.95;;;1.30;86.76
74790;BME280;63318;52.406;13.416;2022-11-24T04:45:35;100518.13;;;1.29;86.60
74790;BME280;63318;52.406;13.416;2022-11-24T04:48:04;100519.79;;;1.27;86.73
74790;BME280;63318;52.406;13.416;2022-11-24T04:50:32;100526.75;;;1.24;86.55
74790;BME280;63318;52.406;13.416;2022-11-24T04:53:01;100530.38;;;1.22;86.73
74790;BME280;63318;52.406;13.416;2022-11-24T04:55:29;100548.88;;;1.19;86.64
74790;BME280;63318;52.406;13.416;2022-11-24T04:57:57;100547.71;;;1.16;86.45
74790;BME280;63318;52.406;13.416;2022-11-24T05:00:25;100553.09;;;1.13;86.36
74790;BME280;63318;52.406;13.416;2022-11-24T05:02:53;100556.38;;;1.08;86.17
74790;BME280;63318;52.406;13.416;2022-11-24T05:05:22;100565.90;;;1.03;86.56
74790;BME280;63318;52.406;13.416;2022-11-24T05:07:50;100565.45;;;1.00;86.49
74790;BME280;63318;52.406;13.416;2022-11-24T05:10:18;100563.44;;;0.98;86.50
74790;BME280;63318;52.406;13.416;2022-11-24T05:12:54;100566.83;;;0.95;86.59
74790;BME280;63318;52.406;13.416;2022-11-24T05:15:23;100564.65;;;0.92;86.54
74790;BME280;63318;52.406;13.416;2022-11-24T05:17:51;100567.55;;;0.89;86.54
74790;BME280;63318;52.406;13.416;2022-11-24T05:20:19;100567.48;;;0.99;86.14
74790;BME280;63318;52.406;13.416;2022-11-24T05:22:48;100571.88;;;1.03;86.32
74790;BME280;63318;52.406;13.416;2022-11-24T05:25:16;100572.41;;;1.02;86.05
74790;BME280;63318;52.406;13.416;2022-11-24T05:27:44;100575.16;;;1.03;86.33
74790;BME280;63318;52.406;13.416;2022-11-24T05:30:13;100578.86;;;1.04;86.20
74790;BME280;63318;52.406;13.416;2022-11-24T05:32:42;100576.62;;;1.06;86.57
74790;BME280;63318;52.406;13.416;2022-11-24T05:35:10;100582.92;;;1.11;86.29
74790;BME280;63318;52.406;13.416;2022-11-24T05:37:38;100582.52;;;1.15;86.11
74790;BME280;63318;52.406;13.416;2022-11-24T05:40:08;100585.27;;;1.21;86.56
74790;BME280;63318;52.406;13.416;2022-11-24T05:42:36;100584.17;;;1.29;86.28
74790;BME280;63318;52.406;13.416;2022-11-24T05:45:06;100590.30;;;1.33;86.26
74790;BME280;63318;52.406;13.416;2022-11-24T05:47:35;100588.95;;;1.35;86.37
74790;BME280;63318;52.406;13.416;2022-11-24T05:50:04;100594.61;;;1.37;86.36
74790;BME280;63318;52.406;13.416;2022-11-24T05:52:33;100593.31;;;1.37;86.27
74790;BME280;63318;52.406;13.416;2022-11-24T05:55:01;100597.40;;;1.35;86.52
74790;BME280;63318;52.406;13.416;2022-11-24T05:57:30;100598.03;;;1.35;85.98
74790;BME280;63318;52.406;13.416;2022-11-24T05:59:58;100601.84;;;1.32;86.05
74790;BME280;63318;52.406;13.416;2022-11-24T06:02:26;100607.52;;;1.28;85.88
74790;BME280;63318;52.406;13.416;2022-11-24T06:04:54;100602.09;;;1.23;85.90
74790;BME280;63318;52.406;13.416;2022-11-24T06:07:23;100603.17;;;1.17;85.89
74790;BME280;63318;52.406;13.416;2022-11-24T06:09:51;100607.45;;;1.10;86.03
74790;BME280;63318;52.406;13.416;2022-11-24T06:12:19;100606.15;;;1.05;85.72
74790;BME280;63318;52.406;13.416;2022-11-24T06:14:47;100611.02;;;1.00;85.80
74790;BME280;63318;52.406;13.416;2022-11-24T06:17:15;100615.96;;;0.95;85.80
74790;BME280;63318;52.406;13.416;2022-11-24T06:19:44;100621.34;;;0.92;85.82
74790;BME280;63318;52.406;13.416;2022-11-24T06:22:12;100624.96;;;0.96;85.77
74790;BME280;63318;52.406;13.416;2022-11-24T06:24:40;100628.66;;;0.96;85.48
74790;BME280;63318;52.406;13.416;2022-11-24T06:27:08;100629.77;;;0.92;85.72
74790;BME280;63318;52.406;13.416;2022-11-24T06:29:36;100637.13;;;0.91;85.74
74790;BME280;63318;52.406;13.416;2022-11-24T06:32:05;100640.54;;;0.93;85.89
74790;BME280;63318;52.406;13.416;2022-11-24T06:34:34;100639.55;;;0.97;85.86
74790;BME280;63318;52.406;13.416;2022-11-24T06:37:02;100641.78;;;1.00;85.55
74790;BME280;63318;52.406;13.416;2022-11-24T06:39:30;100642.69;;;1.01;86.05
74790;BME280;63318;52.406;13.416;2022-11-24T06:41:58;100647.03;;;1.01;86.22
74790;BME280;63318;52.406;13.416;2022-11-24T06:44:27;100649.59;;;1.04;86.12
74790;BME280;63318;52.406;13.416;2022-11-24T06:46:55;100646.35;;;1.05;86.33
74790;BME280;63318;52.406;13.416;2022-11-24T06:49:24;100647.22;;;1.07;86.51
74790;BME280;63318;52.406;13.416;2022-11-24T06:51:54;100649.92;;;1.06;86.43
74790;BME280;63318;52.406;13.416;2022-11-24T06:54:22;100651.52;;;1.06;86.41
74790;BME280;63318;52.406;13.416;2022-11-24T06:56:56;100653.33;;;1.04;86.32
74790;BME280;63318;52.406;13.416;2022-11-24T06:59:25;100653.73;;;1.00;86.19
74790;BME280;63318;52.406;13.416;2022-11-24T07:01:53;100656.39;;;0.97;86.14
74790;BME280;63318;52.406;13.416;2022-11-24T07:04:21;100654.41;;;0.93;86.00
74790;BME280;63318;52.406;13.416;2022-11-24T07:06:49;100665.15;;;0.88;86.09
74790;BME280;63318;52.406;13.416;2022-11-24T07:09:18;100665.29;;;0.84;86.03
74790;BME280;63318;52.406;13.416;2022-11-24T07:11:46;100669.37;;;0.81;85.94
74790;BME280;63318;52.406;13.416;2022-11-24T07:14:14;100668.86;;;0.78;86.06
74790;BME280;63318;52.406;13.416;2022-11-24T07:16:42;100668.88;;;0.76;86.47
74790;BME280;63318;52.406;13.416;2022-11-24T07:19:11;100669.68;;;0.75;86.09
74790;BME280;63318;52.406;13.416;2022-11-24T07:21:39;100669.67;;;0.83;85.95
74790;BME280;63318;52.406;13.416;2022-11-24T07:24:08;100670.61;;;0.88;86.15
74790;BME280;63318;52.406;13.416;2022-11-24T07:26:36;100667.33;;;0.89;86.01
74790;BME280;63318;52.406;13.416;2022-11-24T07:29:05;100668.94;;;0.91;86.22
74790;BME280;63318;52.406;13.416;2022-11-24T07:31:33;100673.08;;;0.95;86.21
74790;BME280;63318;52.406;13.416;2022-11-24T07:34:01;100677.20;;;0.98;86.36
74790;BME280;63318;52.406;13.416;2022-11-24T07:36:30;100686.33;;;1.03;86.50
74790;BME280;63318;52.406;13.416;2022-11-24T07:38:58;100691.86;;;1.10;86.74
74790;BME280;63318;52.406;13.416;2022-11-24T07:41:26;100692.94;;;1.18;86.53
74790;BME280;63318;52.406;13.416;2022-11-24T07:43:55;100694.02;;;1.23;86.50
74790;BME280;63318;52.406;13.416;2022-11-24T07:46:24;100693.66;;;1.29;86.26
74790;BME280;63318;52.406;13.416;2022-11-24T07:48:52;100699.07;;;1.36;86.27
74790;BME280;63318;52.406;13.416;2022-11-24T07:51:20;100699.97;;;1.42;86.44
74790;BME280;63318;52.406;13.416;2022-11-24T07:53:48;100701.55;;;1.45;86.49
74790;BME280;63318;52.406;13.416;2022-11-24T07:56:17;100701.92;;;1.46;86.33
74790;BME280;63318;52.406;13.416;2022-11-24T07:58:45;100708.92;;;1.48;86.14
74790;BME280;63318;52.406;13.416;2022-11-24T08:01:15;100708.75;;;1.48;86.20
74790;BME280;63318;52.406;13.416;2022-11-24T08:03:44;100706.65;;;1.46;86.12
74790;BME280;63318;52.406;13.416;2022-11-24T08:06:13;100708.39;;;1.46;86.29
74790;BME280;63318;52.406;13.416;2022-11-24T08:08:41;100710.23;;;1.44;86.09
74790;BME280;63318;52.406;13.416;2022-11-24T08:11:11;100715.09;;;1.40;86.22
74790;BME280;63318;52.406;13.416;2022-11-24T08:13:40;100712.36;;;1.38;85.82
74790;BME280;63318;52.406;13.416;2022-11-24T08:16:10;100707.90;;;1.34;85.92
74790;BME280;63318;52.406;13.416;2022-11-24T08:18:39;100708.35;;;1.31;86.09
74790;BME280;63318;52.406;13.416;2022-11-24T08:21:09;100712.48;;;1.28;85.92
74790;BME280;63318;52.406;13.416;2022-11-24T08:23:38;100714.65;;;1.24;86.21
74790;BME280;63318;52.406;13.416;2022-11-24T08:26:09;100716.39;;;1.25;86.34
74790;BME280;63318;52.406;13.416;2022-11-24T08:28:38;100720.50;;;1.32;85.82
74790;BME280;63318;52.406;13.416;2022-11-24T08:31:09;100711.49;;;1.34;86.01
74790;BME280;63318;52.406;13.416;2022-11-24T08:33:38;100708.63;;;1.36;85.94
74790;BME280;63318;52.406;13.416;2022-11-24T08:36:10;100714.37;;;1.39;85.89
74790;BME280;63318;52.406;13.416;2022-11-24T08:38:39;100711.63;;;1.45;86.21
74790;BME280;63318;52.406;13.416;2022-11-24T08:41:09;100717.30;;;1.50;85.99
74790;BME280;63318;52.406;13.416;2022-11-24T08:43:37;100716.21;;;1.53;86.07
74790;BME280;63318;52.406;13.416;2022-11-24T08:46:08;100721.94;;;1.58;86.21
74790;BME280;63318;52.406;13.416;2022-11-24T08:48:37;100719.55;;;1.63;86.38
74790;BME280;63318;52.406;13.416;2022-11-24T08:51:09;100719.15;;;1.69;86.35
74790;BME280;63318;52.406;13.416;2022-11-24T08:53:38;100717.98;;;1.75;86.14
74790;BME280;63318;52.406;13.416;2022-11-24T08:56:07;100720.02;;;1.82;86.41
74790;BME280;63318;52.406;13.416;2022-11-24T08:58:36;100722.55;;;1.90;86.37
74790;BME280;63318;52.406;13.416;2022-11-24T09:01:06;100725.83;;;1.98;86.01
74790;BME280;63318;52.406;13.416;2022-11-24T09:03:35;100729.21;;;2.03;86.57
74790;BME280;63318;52.406;13.416;2022-11-24T09:06:04;100730.50;;;2.08;86.38
74790;BME280;63318;52.406;13.416;2022-11-24T09:08:33;100730.02;;;2.10;86.17
74790;BME280;63318;52.406;13.416;2022-11-24T09:11:03;100746.21;;;2.11;86.26
74790;BME280;63318;52.406;13.416;2022-11-24T09:13:32;100750.98;;;2.09;86.13
74790;BME280;63318;52.406;13.416;2022-11-24T09:16:05;100753.50;;;2.11;86.32
74790;BME280;63318;52.406;13.416;2022-11-24T09:18:34;100750.58;;;2.14;86.44
74790;BME280;63318;52.406;13.416;2022-11-24T09:21:10;100757.86;;;2.15;86.19
74790;BME280;63318;52.406;13.416;2022-11-24T09:23:39;100757.25;;;2.17;86.31
74790;BME280;63318;52.406;13.416;2022-11-24T09:26:08;100757.09;;;2.17;86.01
74790;BME280;63318;52.406;13.416;2022-11-24T09:28:37;100759.07;;;2.16;86.39
74790;BME280;63318;52.406;13.416;2022-11-24T09:31:08;100759.92;;;2.16;86.10
74790;BME280;63318;52.406;13.416;2022-11-24T09:33:38;100765.96;;;2.22;85.94
74790;BME280;63318;52.406;13.416;2022-11-24T09:36:08;100764.97;;;2.24;85.98
74790;BME280;63318;52.406;13.416;2022-11-24T09:38:36;100764.45;;;2.29;85.70
74790;BME280;63318;52.406;13.416;2022-11-24T09:41:28;100762.19;;;2.32;85.87
74790;BME280;63318;52.406;13.416;2022-11-24T09:44:04;100764.73;;;2.40;86.35
74790;BME280;63318;52.406;13.416;2022-11-24T09:46:41;100766.61;;;2.46;86.18
74790;BME280;63318;52.406;13.416;2022-11-24T09:49:15;100769.12;;;2.54;86.49
74790;BME280;63318;52.406;13.416;2022-11-24T09:51:46;100761.45;;;2.62;86.16
74790;BME280;63318;52.406;13.416;2022-11-24T09:54:20;100756.98;;;2.71;86.49
74790;BME280;63318;52.406;13.416;2022-11-24T09:56:49;100761.27;;;2.78;86.31
74790;BME280;63318;52.406;13.416;2022-11-24T09:59:20;100761.94;;;2.85;86.42
74790;BME280;63318;52.406;13.416;2022-11-24T10:01:50;100761.45;;;2.93;86.04
74790;BME280;63318;52.406;13.416;2022-11-24T10:04:20;100766.46;;;3.00;85.96
74790;BME280;63318;52.406;13.416;2022-11-24T10:06:54;100768.17;;;3.05;86.11
74790;BME280;63318;52.406;13.416;2022-11-24T10:09:41;100776.36;;;3.10;86.28
74790;BME280;63318;52.406;13.416;2022-11-24T10:12:21;100783.73;;;3.18;86.27
74790;BME280;63318;52.406;13.416;2022-11-24T10:20:58;100786.77;;;3.35;85.78
74790;BME280;63318;52.406;13.416;2022-11-24T10:23:40;100780.64;;;3.36;85.68
74790;BME280;63318;52.406;13.416;2022-11-24T10:26:17;100778.73;;;3.36;85.56
74790;BME280;63318;52.406;13.416;2022-11-24T10:28:50;100785.39;;;3.35;85.57
74790;BME280;63318;52.406;13.416;2022-11-24T10:31:29;100784.96;;;3.31;85.50
74790;BME280;63318;52.406;13.416;2022-11-24T10:33:59;100790.18;;;3.31;85.41
74790;BME280;63318;52.406;13.416;2022-11-24T10:36:34;100787.95;;;3.30;85.46
74790;BME280;63318;52.406;13.416;2022-11-24T10:39:10;100787.28;;;3.30;85.33
74790;BME280;63318;52.406;13.416;2022-11-24T10:41:45;100781.10;;;3.40;85.24
74790;BME280;63318;52.406;13.416;2022-11-24T10:44:15;100779.66;;;3.41;85.23
74790;BME280;63318;52.406;13.416;2022-11-24T10:46:43;100779.13;;;3.43;85.41
74790;BME280;63318;52.406;13.416;2022-11-24T10:49:16;100774.88;;;3.48;85.49
74790;BME280;63318;52.406;13.416;2022-11-24T10:51:55;100774.55;;;3.57;85.72
74790;BME280;63318;52.406;13.416;2022-11-24T10:54:26;100777.38;;;3.67;85.82
74790;BME280;63318;52.406;13.416;2022-11-24T10:56:55;100774.25;;;3.76;85.76
74790;BME280;63318;52.406;13.416;2022-11-24T10:59:30;100775.49;;;3.88;85.72
74790;BME280;63318;52.406;13.416;2022-11-24T11:01:59;100777.72;;;4.04;85.83
74790;BME280;63318;52.406;13.416;2022-11-24T11:04:29;100784.11;;;4.22;85.87
74790;BME280;63318;52.406;13.416;2022-11-24T11:07:16;100789.16;;;4.39;85.86
74790;BME280;63318;52.406;13.416;2022-11-24T11:09:46;100797.94;;;4.52;85.72
74790;BME280;63318;52.406;13.416;2022-11-24T11:12:20;100804.06;;;4.56;85.59
74790;BME280;63318;52.406;13.416;2022-11-24T11:14:49;100801.77;;;4.59;85.63
74790;BME280;63318;52.406;13.416;2022-11-24T11:17:35;100801.58;;;4.64;85.31
74790;BME280;63318;52.406;13.416;2022-11-24T11:20:06;100799.53;;;4.68;85.14
74790;BME280;63318;52.406;13.416;2022-11-24T11:22:44;100793.98;;;4.74;85.39
74790;BME280;63318;52.406;13.416;2022-11-24T11:25:21;100785.34;;;4.76;84.98
74790;BME280;63318;52.406;13.416;2022-11-24T11:27:51;100781.19;;;4.77;84.74
74790;BME280;63318;52.406;13.416;2022-11-24T11:30:37;100786.34;;;4.78;84.72
74790;BME280;63318;52.406;13.416;2022-11-24T11:33:21;100786.55;;;4.78;84.88
74790;BME280;63318;52.406;13.416;2022-11-24T11:35:49;100785.94;;;4.80;84.76
74790;BME280;63318;52.406;13.416;2022-11-24T11:38:18;100782.55;;;4.81;85.00
74790;BME280;63318;52.406;13.416;2022-11-24T11:40:49;100789.08;;;4.82;84.68
74790;BME280;63318;52.406;13.416;2022-11-24T11:43:23;100783.39;;;4.80;84.59
74790;BME280;63318;52.406;13.416;2022-11-24T11:46:00;100778.05;;;4.80;84.66
74790;BME280;63318;52.406;13.416;2022-11-24T11:48:32;100780.79;;;4.79;84.34
74790;BME280;63318;52.406;13.416;2022-11-24T11:51:20;100786.52;;;4.77;84.39
74790;BME280;63318;52.406;13.416;2022-11-24T11:53:58;100782.73;;;4.79;84.64
74790;BME280;63318;52.406;13.416;2022-11-24T11:56:38;100788.16;;;4.83;84.62
74790;BME280;63318;52.406;13.416;2022-11-24T12:05:13;100794.58;;;5.04;84.79
74790;BME280;63318;52.406;13.416;2022-11-24T12:07:58;100799.16;;;5.10;84.86
74790;BME280;63318;52.406;13.416;2022-11-24T12:10:37;100800.77;;;5.20;84.60
74790;BME280;63318;52.406;13.416;2022-11-24T12:13:34;100800.69;;;5.25;84.56
74790;BME280;63318;52.406;13.416;2022-11-24T12:16:13;100803.45;;;5.32;84.70
74790;BME280;63318;52.406;13.416;2022-11-24T12:18:51;100802.86;;;5.36;84.77
74790;BME280;63318;52.406;13.416;2022-11-24T12:21:28;100795.55;;;5.38;84.57
74790;BME280;63318;52.406;13.416;2022-11-24T12:24:07;100794.62;;;5.40;84.23
74790;BME280;63318;52.406;13.416;2022-11-24T12:26:42;100790.20;;;5.42;84.27
74790;BME280;63318;52.406;13.416;2022-11-24T12:29:31;100787.31;;;5.41;83.96
74790;BME280;63318;52.406;13.416;2022-11-24T12:32:16;100784.05;;;5.38;83.81
74790;BME280;63318;52.406;13.416;2022-11-24T12:34:54;100783.21;;;5.36;84.00
74790;BME280;63318;52.406;13.416;2022-11-24T12:37:40;100789.08;;;5.35;83.86
74790;BME280;63318;52.406;13.416;2022-11-24T12:40:22;100784.14;;;5.33;83.92
74790;BME280;63318;52.406;13.416;2022-11-24T12:43:01;100785.20;;;5.34;84.18
74790;BME280;63318;52.406;13.416;2022-11-24T12:45:41;100790.00;;;5.34;83.91
74790;BME280;63318;52.406;13.416;2022-11-24T12:48:22;100789.16;;;5.34;84.01
74790;BME280;63318;52.406;13.416;2022-11-24T12:50:56;100797.70;;;5.38;83.88
74790;BME280;63318;52.406;13.416;2022-11-24T12:53:31;100795.95;;;5.46;83.59
74790;BME280;63318;52.406;13.416;2022-11-24T12:56:10;100798.83;;;5.48;83.62
74790;BME280;63318;52.406;13.416;2022-11-24T12:58:44;100795.76;;;5.49;83.67
74790;BME280;63318;52.406;13.416;2022-11-24T13:01:20;100794.02;;;5.53;83.79
74790;BME280;63318;52.406;13.416;2022-11-24T13:04:02;100794.38;;;5.58;83.81
74790;BME280;63318;52.406;13.416;2022-11-24T13:06:42;100794.55;;;5.66;83.99
74790;BME280;63318;52.406;13.416;2022-11-24T13:09:13;100796.20;;;5.76;83.88
74790;BME280;63318;52.406;13.416;2022-11-24T13:11:43;100799.51;;;5.85;83.98
74790;BME280;63318;52.406;13.416;2022-11-24T13:14:19;100796.91;;;5.91;83.97
74790;BME280;63318;52.406;13.416;2022-11-24T13:17:22;100794.89;;;5.94;83.67
74790;BME280;63318;52.406;13.416;2022-11-24T13:19:50;100799.89;;;5.98;83.54
74790;BME280;63318;52.406;13.416;2022-11-24T13:22:24;100800.89;;;6.01;83.40